sensor_id;sensor_type;location;lat;lon;timestamp;P1;durP1;ratioP1;P2;durP2;ratioP2
29732;SDS011;16643;43.158;25.302;2022-11-12T08:46:31;54.40;;;31.73;;
29732;SDS011;16643;43.158;25.302;2022-11-12T08:48:56;51.80;;;29.25;;
29732;SDS011;16643;43.158;25.302;2022-11-12T08:51:22;54.50;;;30.08;;
29732;SDS011;16643;43.158;25.302;2022-11-12T08:53:48;59.00;;;28.92;;
29732;SDS011;16643;43.158;25.302;2022-11-12T08:56:13;55.78;;;30.67;;
29732;SDS011;16643;43.158;25.302;2022-11-12T08:58:39;52.60;;;29.17;;
29732;SDS011;16643;43.158;25.302;2022-11-12T09:01:07;51.17;;;28.65;;
29732;SDS011;16643;43.158;25.302;2022-11-12T09:03:33;51.20;;;29.00;;
29732;SDS011;16643;43.158;25.302;2022-11-12T09:06:01;54.03;;;29.38;;
29732;SDS011;16643;43.158;25.302;2022-11-12T09:08:28;59.95;;;32.65;;
29732;SDS011;16643;43.158;25.302;2022-11-12T09:10:53;56.10;;;31.38;;
29732;SDS011;16643;43.158;25.302;2022-11-12T09:13:22;55.00;;;31.02;;
29732;SDS011;16643;43.158;25.302;2022-11-12T09:15:47;58.35;;;31.25;;
29732;SDS011;16643;43.158;25.302;2022-11-12T09:18:14;60.15;;;30.98;;
29732;SDS011;16643;43.158;25.302;2022-11-12T09:20:41;58.40;;;31.73;;
29732;SDS011;16643;43.158;25.302;2022-11-12T09:23:08;62.25;;;31.55;;
29732;SDS011;16643;43.158;25.302;2022-11-12T09:25:39;60.83;;;31.45;;
29732;SDS011;16643;43.158;25.302;2022-11-12T09:28:06;55.92;;;31.98;;
29732;SDS011;16643;43.158;25.302;2022-11-12T09:30:36;61.90;;;33.22;;
29732;SDS011;16643;43.158;25.302;2022-11-12T09:33:02;59.00;;;31.88;;
29732;SDS011;16643;43.158;25.302;2022-11-12T09:35:28;64.40;;;32.30;;
29732;SDS011;16643;43.158;25.302;2022-11-12T09:37:55;63.22;;;32.65;;
29732;SDS011;16643;43.158;25.302;2022-11-12T09:40:21;65.50;;;34.47;;
29732;SDS011;16643;43.158;25.302;2022-11-12T09:49:05;63.70;;;32.88;;
29732;SDS011;16643;43.158;25.302;2022-11-12T09:51:38;66.00;;;34.60;;
29732;SDS011;16643;43.158;25.302;2022-11-12T09:54:16;64.65;;;35.20;;
29732;SDS011;16643;43.158;25.302;2022-11-12T09:56:51;60.03;;;33.63;;
29732;SDS011;16643;43.158;25.302;2022-11-12T09:59:17;68.28;;;33.83;;
29732;SDS011;16643;43.158;25.302;2022-11-12T10:01:58;69.35;;;36.42;;
29732;SDS011;16643;43.158;25.302;2022-11-12T10:05:08;63.55;;;32.85;;
29732;SDS011;16643;43.158;25.302;2022-11-12T10:07:54;61.53;;;32.00;;
29732;SDS011;16643;43.158;25.302;2022-11-12T10:13:05;62.15;;;32.00;;
29732;SDS011;16643;43.158;25.302;2022-11-12T10:21:34;63.00;;;33.40;;
29732;SDS011;16643;43.158;25.302;2022-11-12T10:24:00;53.00;;;31.33;;
29732;SDS011;16643;43.158;25.302;2022-11-12T10:26:28;59.08;;;31.27;;
29732;SDS011;16643;43.158;25.302;2022-11-12T10:29:02;62.35;;;35.17;;
29732;SDS011;16643;43.158;25.302;2022-11-12T10:31:53;63.80;;;33.38;;
29732;SDS011;16643;43.158;25.302;2022-11-12T10:34:19;65.43;;;34.90;;
29732;SDS011;16643;43.158;25.302;2022-11-12T10:36:48;67.22;;;35.47;;
29732;SDS011;16643;43.158;25.302;2022-11-12T10:39:34;67.50;;;34.10;;
29732;SDS011;16643;43.158;25.302;2022-11-12T10:42:05;67.78;;;36.15;;
29732;SDS011;16643;43.158;25.302;2022-11-12T10:44:33;69.18;;;37.90;;
29732;SDS011;16643;43.158;25.302;2022-11-12T10:50:02;63.03;;;34.55;;
29732;SDS011;16643;43.158;25.302;2022-11-12T10:52:28;59.45;;;33.28;;
29732;SDS011;16643;43.158;25.302;2022-11-12T10:55:16;65.22;;;34.92;;
29732;SDS011;16643;43.158;25.302;2022-11-12T10:57:42;61.10;;;32.20;;
29732;SDS011;16643;43.158;25.302;2022-11-12T11:00:15;64.93;;;34.63;;
29732;SDS011;16643;43.158;25.302;2022-11-12T11:05:35;60.47;;;34.97;;
29732;SDS011;16643;43.158;25.302;2022-11-12T11:08:02;59.65;;;32.95;;
29732;SDS011;16643;43.158;25.302;2022-11-12T11:10:35;60.33;;;33.28;;
29732;SDS011;16643;43.158;25.302;2022-11-12T11:13:34;63.85;;;34.03;;
29732;SDS011;16643;43.158;25.302;2022-11-12T11:15:59;57.03;;;31.02;;
29732;SDS011;16643;43.158;25.302;2022-11-12T11:18:26;66.47;;;38.15;;
29732;SDS011;16643;43.158;25.302;2022-11-12T11:21:05;61.95;;;32.88;;
29732;SDS011;16643;43.158;25.302;2022-11-12T11:26:26;56.03;;;31.52;;
29732;SDS011;16643;43.158;25.302;2022-11-12T11:29:12;59.88;;;32.13;;
29732;SDS011;16643;43.158;25.302;2022-11-12T11:37:37;55.88;;;32.45;;
29732;SDS011;16643;43.158;25.302;2022-11-12T11:40:26;56.47;;;31.48;;
29732;SDS011;16643;43.158;25.302;2022-11-12T11:56:27;56.03;;;31.70;;
29732;SDS011;16643;43.158;25.302;2022-11-12T11:59:04;57.60;;;33.38;;
29732;SDS011;16643;43.158;25.302;2022-11-12T12:02:25;49.28;;;29.85;;
29732;SDS011;16643;43.158;25.302;2022-11-12T12:04:49;55.80;;;29.63;;
29732;SDS011;16643;43.158;25.302;2022-11-12T12:12:56;56.05;;;32.53;;
29732;SDS011;16643;43.158;25.302;2022-11-12T12:18:18;57.55;;;31.92;;
29732;SDS011;16643;43.158;25.302;2022-11-12T12:21:12;60.42;;;32.13;;
29732;SDS011;16643;43.158;25.302;2022-11-12T12:23:45;56.58;;;32.83;;
29732;SDS011;16643;43.158;25.302;2022-11-12T12:29:27;56.08;;;32.63;;
29732;SDS011;16643;43.158;25.302;2022-11-12T12:32:06;54.42;;;32.15;;
29732;SDS011;16643;43.158;25.302;2022-11-12T12:34:41;55.08;;;32.03;;
29732;SDS011;16643;43.158;25.302;2022-11-12T12:37:20;56.17;;;33.03;;
29732;SDS011;16643;43.158;25.302;2022-11-12T12:43:26;62.60;;;33.67;;
29732;SDS011;16643;43.158;25.302;2022-11-12T12:45:44;55.38;;;35.47;;
29732;SDS011;16643;43.158;25.302;2022-11-12T12:50:48;61.67;;;33.03;;
29732;SDS011;16643;43.158;25.302;2022-11-12T12:53:17;58.50;;;32.50;;
29732;SDS011;16643;43.158;25.302;2022-11-12T12:56:05;61.63;;;34.50;;
29732;SDS011;16643;43.158;25.302;2022-11-12T12:58:51;60.78;;;35.08;;
29732;SDS011;16643;43.158;25.302;2022-11-12T13:03:50;63.13;;;33.88;;
29732;SDS011;16643;43.158;25.302;2022-11-12T13:08:51;63.45;;;35.47;;
29732;SDS011;16643;43.158;25.302;2022-11-12T13:19:26;62.13;;;34.58;;
29732;SDS011;16643;43.158;25.302;2022-11-12T13:45:21;63.72;;;34.25;;
29732;SDS011;16643;43.158;25.302;2022-11-12T13:47:49;61.03;;;31.63;;
29732;SDS011;16643;43.158;25.302;2022-11-12T13:50:18;63.90;;;34.33;;
29732;SDS011;16643;43.158;25.302;2022-11-12T13:52:46;57.05;;;33.95;;
29732;SDS011;16643;43.158;25.302;2022-11-12T13:57:39;53.50;;;32.50;;
29732;SDS011;16643;43.158;25.302;2022-11-12T14:00:06;58.60;;;32.92;;
29732;SDS011;16643;43.158;25.302;2022-11-12T14:02:33;56.30;;;32.83;;
29732;SDS011;16643;43.158;25.302;2022-11-12T14:05:01;58.47;;;31.55;;
29732;SDS011;16643;43.158;25.302;2022-11-12T14:20:38;62.63;;;34.53;;
29732;SDS011;16643;43.158;25.302;2022-11-12T14:23:10;54.15;;;33.08;;
29732;SDS011;16643;43.158;25.302;2022-11-12T14:25:48;57.95;;;33.05;;
29732;SDS011;16643;43.158;25.302;2022-11-12T14:28:25;56.08;;;31.95;;
29732;SDS011;16643;43.158;25.302;2022-11-12T14:30:53;60.30;;;34.75;;
29732;SDS011;16643;43.158;25.302;2022-11-12T14:33:20;59.33;;;35.15;;
29732;SDS011;16643;43.158;25.302;2022-11-12T14:35:48;59.75;;;34.67;;
29732;SDS011;16643;43.158;25.302;2022-11-12T14:40:47;58.88;;;34.55;;
29732;SDS011;16643;43.158;25.302;2022-11-12T14:45:49;76.72;;;44.08;;
29732;SDS011;16643;43.158;25.302;2022-11-12T14:48:17;71.95;;;41.25;;
29732;SDS011;16643;43.158;25.302;2022-11-12T14:50:44;58.95;;;34.47;;
29732;SDS011;16643;43.158;25.302;2022-11-12T14:53:24;63.60;;;38.00;;
29732;SDS011;16643;43.158;25.302;2022-11-12T14:55:54;72.75;;;42.47;;
29732;SDS011;16643;43.158;25.302;2022-11-12T14:58:21;61.13;;;35.65;;
29732;SDS011;16643;43.158;25.302;2022-11-12T15:00:49;62.30;;;37.95;;
29732;SDS011;16643;43.158;25.302;2022-11-12T15:03:18;59.90;;;35.60;;
29732;SDS011;16643;43.158;25.302;2022-11-12T15:06:29;57.25;;;34.22;;
29732;SDS011;16643;43.158;25.302;2022-11-12T15:08:37;57.50;;;32.65;;
29732;SDS011;16643;43.158;25.302;2022-11-12T15:13:47;58.53;;;33.40;;
29732;SDS011;16643;43.158;25.302;2022-11-12T15:16:17;59.88;;;33.97;;
29732;SDS011;16643;43.158;25.302;2022-11-12T15:21:52;60.40;;;34.47;;
29732;SDS011;16643;43.158;25.302;2022-11-12T15:24:24;65.85;;;37.03;;
29732;SDS011;16643;43.158;25.302;2022-11-12T15:27:01;68.82;;;39.78;;
29732;SDS011;16643;43.158;25.302;2022-11-12T15:33:35;62.08;;;36.38;;
29732;SDS011;16643;43.158;25.302;2022-11-12T15:35:42;61.55;;;37.08;;
29732;SDS011;16643;43.158;25.302;2022-11-12T15:38:28;68.40;;;38.75;;
29732;SDS011;16643;43.158;25.302;2022-11-12T15:41:02;72.05;;;43.88;;
29732;SDS011;16643;43.158;25.302;2022-11-12T15:43:29;67.80;;;39.45;;
29732;SDS011;16643;43.158;25.302;2022-11-12T15:45:59;65.18;;;38.35;;
29732;SDS011;16643;43.158;25.302;2022-11-12T15:48:26;71.65;;;42.97;;
29732;SDS011;16643;43.158;25.302;2022-11-12T15:50:51;67.88;;;40.63;;
29732;SDS011;16643;43.158;25.302;2022-11-12T15:53:17;68.72;;;41.33;;
29732;SDS011;16643;43.158;25.302;2022-11-12T15:55:43;71.30;;;41.58;;
29732;SDS011;16643;43.158;25.302;2022-11-12T15:58:14;60.28;;;35.60;;
29732;SDS011;16643;43.158;25.302;2022-11-12T16:00:42;58.85;;;34.78;;
29732;SDS011;16643;43.158;25.302;2022-11-12T16:03:18;62.28;;;37.25;;
29732;SDS011;16643;43.158;25.302;2022-11-12T16:05:45;64.20;;;37.58;;
29732;SDS011;16643;43.158;25.302;2022-11-12T16:08:11;63.47;;;38.05;;
29732;SDS011;16643;43.158;25.302;2022-11-12T16:10:37;69.15;;;39.70;;
29732;SDS011;16643;43.158;25.302;2022-11-12T16:13:05;65.80;;;37.95;;
29732;SDS011;16643;43.158;25.302;2022-11-12T16:15:32;66.82;;;37.75;;
29732;SDS011;16643;43.158;25.302;2022-11-12T16:17:58;67.18;;;39.33;;
29732;SDS011;16643;43.158;25.302;2022-11-12T16:20:30;66.35;;;40.30;;
29732;SDS011;16643;43.158;25.302;2022-11-12T16:22:57;71.75;;;40.10;;
29732;SDS011;16643;43.158;25.302;2022-11-12T16:25:24;74.57;;;42.35;;
29732;SDS011;16643;43.158;25.302;2022-11-12T16:27:54;64.50;;;37.60;;
29732;SDS011;16643;43.158;25.302;2022-11-12T16:30:21;76.15;;;40.05;;
29732;SDS011;16643;43.158;25.302;2022-11-12T16:32:57;59.28;;;35.38;;
29732;SDS011;16643;43.158;25.302;2022-11-12T16:35:24;64.97;;;38.05;;
29732;SDS011;16643;43.158;25.302;2022-11-12T16:37:51;71.82;;;38.17;;
29732;SDS011;16643;43.158;25.302;2022-11-12T16:40:19;63.17;;;35.65;;
29732;SDS011;16643;43.158;25.302;2022-11-12T16:42:47;64.47;;;38.30;;
29732;SDS011;16643;43.158;25.302;2022-11-12T16:45:14;62.90;;;37.42;;
29732;SDS011;16643;43.158;25.302;2022-11-12T16:47:46;63.95;;;38.15;;
29732;SDS011;16643;43.158;25.302;2022-11-12T16:50:18;65.03;;;37.00;;
29732;SDS011;16643;43.158;25.302;2022-11-12T16:52:46;76.75;;;45.88;;
29732;SDS011;16643;43.158;25.302;2022-11-12T16:55:12;82.80;;;47.70;;
29732;SDS011;16643;43.158;25.302;2022-11-12T16:57:39;70.78;;;40.70;;
29732;SDS011;16643;43.158;25.302;2022-11-12T17:00:05;70.32;;;41.55;;
29732;SDS011;16643;43.158;25.302;2022-11-12T17:02:35;62.38;;;39.10;;
29732;SDS011;16643;43.158;25.302;2022-11-12T17:05:04;64.65;;;37.60;;
29732;SDS011;16643;43.158;25.302;2022-11-12T17:07:32;67.53;;;38.38;;
29732;SDS011;16643;43.158;25.302;2022-11-12T17:09:58;78.07;;;44.17;;
29732;SDS011;16643;43.158;25.302;2022-11-12T17:12:24;70.75;;;44.58;;
29732;SDS011;16643;43.158;25.302;2022-11-12T17:14:49;68.70;;;39.35;;
29732;SDS011;16643;43.158;25.302;2022-11-12T17:17:15;69.45;;;40.38;;
29732;SDS011;16643;43.158;25.302;2022-11-12T17:19:41;66.82;;;39.05;;
29732;SDS011;16643;43.158;25.302;2022-11-12T17:22:06;64.78;;;37.35;;
29732;SDS011;16643;43.158;25.302;2022-11-12T17:24:32;60.50;;;35.40;;
29732;SDS011;16643;43.158;25.302;2022-11-12T17:26:58;60.13;;;36.13;;
29732;SDS011;16643;43.158;25.302;2022-11-12T17:29:25;61.38;;;34.85;;
29732;SDS011;16643;43.158;25.302;2022-11-12T17:31:51;58.70;;;36.67;;
29732;SDS011;16643;43.158;25.302;2022-11-12T17:34:17;59.05;;;35.80;;
29732;SDS011;16643;43.158;25.302;2022-11-12T17:36:42;59.70;;;34.90;;
29732;SDS011;16643;43.158;25.302;2022-11-12T17:39:09;62.88;;;37.30;;
29732;SDS011;16643;43.158;25.302;2022-11-12T17:41:36;59.65;;;36.67;;
29732;SDS011;16643;43.158;25.302;2022-11-12T17:44:02;60.10;;;36.10;;
29732;SDS011;16643;43.158;25.302;2022-11-12T17:46:29;59.20;;;34.45;;
29732;SDS011;16643;43.158;25.302;2022-11-12T17:48:56;43.08;;;25.70;;
29732;SDS011;16643;43.158;25.302;2022-11-12T17:51:23;61.45;;;35.25;;
29732;SDS011;16643;43.158;25.302;2022-11-12T17:53:50;56.88;;;34.92;;
29732;SDS011;16643;43.158;25.302;2022-11-12T17:56:18;62.88;;;36.33;;
29732;SDS011;16643;43.158;25.302;2022-11-12T17:58:45;66.03;;;38.55;;
29732;SDS011;16643;43.158;25.302;2022-11-12T18:03:40;65.78;;;36.80;;
29732;SDS011;16643;43.158;25.302;2022-11-12T18:06:11;69.47;;;39.30;;
29732;SDS011;16643;43.158;25.302;2022-11-12T18:08:44;67.82;;;38.50;;
29732;SDS011;16643;43.158;25.302;2022-11-12T18:11:11;67.68;;;36.83;;
29732;SDS011;16643;43.158;25.302;2022-11-12T18:13:38;62.67;;;37.33;;
29732;SDS011;16643;43.158;25.302;2022-11-12T18:16:20;62.30;;;36.00;;
29732;SDS011;16643;43.158;25.302;2022-11-12T18:18:47;60.95;;;34.47;;
29732;SDS011;16643;43.158;25.302;2022-11-12T18:21:14;64.43;;;33.60;;
29732;SDS011;16643;43.158;25.302;2022-11-12T18:23:41;62.38;;;35.58;;
29732;SDS011;16643;43.158;25.302;2022-11-12T18:26:08;55.63;;;32.88;;
29732;SDS011;16643;43.158;25.302;2022-11-12T18:28:36;63.15;;;33.42;;
29732;SDS011;16643;43.158;25.302;2022-11-12T18:31:03;56.45;;;31.98;;
29732;SDS011;16643;43.158;25.302;2022-11-12T18:36:06;49.85;;;29.15;;
29732;SDS011;16643;43.158;25.302;2022-11-12T18:38:36;51.50;;;30.70;;
29732;SDS011;16643;43.158;25.302;2022-11-12T18:41:03;48.28;;;29.30;;
29732;SDS011;16643;43.158;25.302;2022-11-12T18:43:31;59.55;;;31.85;;
29732;SDS011;16643;43.158;25.302;2022-11-12T18:45:57;56.47;;;30.73;;
29732;SDS011;16643;43.158;25.302;2022-11-12T18:48:27;56.92;;;31.73;;
29732;SDS011;16643;43.158;25.302;2022-11-12T18:51:01;56.80;;;32.53;;
29732;SDS011;16643;43.158;25.302;2022-11-12T18:53:28;55.67;;;31.30;;
29732;SDS011;16643;43.158;25.302;2022-11-12T18:55:55;64.07;;;34.40;;
29732;SDS011;16643;43.158;25.302;2022-11-12T18:58:24;64.57;;;36.03;;
29732;SDS011;16643;43.158;25.302;2022-11-12T19:00:51;62.72;;;36.60;;
29732;SDS011;16643;43.158;25.302;2022-11-12T19:03:16;66.53;;;38.10;;
29732;SDS011;16643;43.158;25.302;2022-11-12T19:05:42;73.65;;;41.55;;
29732;SDS011;16643;43.158;25.302;2022-11-12T19:08:08;65.32;;;38.08;;
29732;SDS011;16643;43.158;25.302;2022-11-12T19:10:33;64.68;;;37.67;;
29732;SDS011;16643;43.158;25.302;2022-11-12T19:12:59;71.47;;;38.05;;
29732;SDS011;16643;43.158;25.302;2022-11-12T19:17:54;73.38;;;41.45;;
29732;SDS011;16643;43.158;25.302;2022-11-12T19:20:19;71.30;;;41.28;;
29732;SDS011;16643;43.158;25.302;2022-11-12T19:22:45;66.55;;;39.55;;
29732;SDS011;16643;43.158;25.302;2022-11-12T19:25:10;65.53;;;38.55;;
29732;SDS011;16643;43.158;25.302;2022-11-12T19:27:36;66.15;;;37.95;;
29732;SDS011;16643;43.158;25.302;2022-11-12T19:30:02;65.28;;;35.97;;
29732;SDS011;16643;43.158;25.302;2022-11-12T19:32:29;66.93;;;37.63;;
29732;SDS011;16643;43.158;25.302;2022-11-12T19:34:55;65.75;;;36.22;;
29732;SDS011;16643;43.158;25.302;2022-11-12T19:37:21;69.05;;;38.65;;
29732;SDS011;16643;43.158;25.302;2022-11-12T19:39:46;62.28;;;36.67;;
29732;SDS011;16643;43.158;25.302;2022-11-12T19:42:12;65.55;;;37.28;;
29732;SDS011;16643;43.158;25.302;2022-11-12T19:44:37;56.70;;;33.33;;
29732;SDS011;16643;43.158;25.302;2022-11-12T19:47:03;53.60;;;32.40;;
29732;SDS011;16643;43.158;25.302;2022-11-12T19:49:29;60.30;;;33.17;;
29732;SDS011;16643;43.158;25.302;2022-11-12T19:51:55;74.15;;;40.35;;
29732;SDS011;16643;43.158;25.302;2022-11-12T19:54:20;68.85;;;38.85;;
29732;SDS011;16643;43.158;25.302;2022-11-12T19:56:46;74.47;;;41.55;;
29732;SDS011;16643;43.158;25.302;2022-11-12T19:59:12;81.57;;;45.42;;
29732;SDS011;16643;43.158;25.302;2022-11-12T20:01:37;72.72;;;42.13;;
29732;SDS011;16643;43.158;25.302;2022-11-12T20:04:03;77.38;;;46.10;;
29732;SDS011;16643;43.158;25.302;2022-11-12T20:06:29;72.00;;;42.13;;
29732;SDS011;16643;43.158;25.302;2022-11-12T20:08:58;80.47;;;44.35;;
29732;SDS011;16643;43.158;25.302;2022-11-12T20:11:24;71.05;;;41.38;;
29732;SDS011;16643;43.158;25.302;2022-11-12T20:13:52;68.85;;;42.33;;
29732;SDS011;16643;43.158;25.302;2022-11-12T20:16:18;63.78;;;37.15;;
29732;SDS011;16643;43.158;25.302;2022-11-12T20:18:44;56.50;;;33.28;;
29732;SDS011;16643;43.158;25.302;2022-11-12T20:21:10;62.75;;;33.13;;
29732;SDS011;16643;43.158;25.302;2022-11-12T20:23:37;54.70;;;31.15;;
29732;SDS011;16643;43.158;25.302;2022-11-12T20:26:05;58.15;;;30.08;;
29732;SDS011;16643;43.158;25.302;2022-11-12T20:28:34;50.03;;;28.15;;
29732;SDS011;16643;43.158;25.302;2022-11-12T20:31:01;51.78;;;30.27;;
29732;SDS011;16643;43.158;25.302;2022-11-12T20:33:29;48.00;;;28.15;;
29732;SDS011;16643;43.158;25.302;2022-11-12T20:35:54;56.78;;;29.45;;
29732;SDS011;16643;43.158;25.302;2022-11-12T20:38:29;48.20;;;26.73;;
29732;SDS011;16643;43.158;25.302;2022-11-12T20:40:56;49.35;;;26.88;;
29732;SDS011;16643;43.158;25.302;2022-11-12T20:43:22;46.93;;;25.50;;
29732;SDS011;16643;43.158;25.302;2022-11-12T20:45:51;43.00;;;24.95;;
29732;SDS011;16643;43.158;25.302;2022-11-12T20:48:17;44.35;;;26.20;;
29732;SDS011;16643;43.158;25.302;2022-11-12T20:50:44;45.92;;;25.50;;
29732;SDS011;16643;43.158;25.302;2022-11-12T20:53:10;39.50;;;23.50;;
29732;SDS011;16643;43.158;25.302;2022-11-12T20:55:36;45.08;;;24.58;;
29732;SDS011;16643;43.158;25.302;2022-11-12T20:58:03;49.17;;;25.88;;
29732;SDS011;16643;43.158;25.302;2022-11-12T21:00:28;50.90;;;28.52;;
29732;SDS011;16643;43.158;25.302;2022-11-12T21:02:54;52.08;;;28.02;;
29732;SDS011;16643;43.158;25.302;2022-11-12T21:05:19;53.70;;;28.98;;
29732;SDS011;16643;43.158;25.302;2022-11-12T21:07:45;57.85;;;30.05;;
29732;SDS011;16643;43.158;25.302;2022-11-12T21:10:11;52.67;;;29.55;;
29732;SDS011;16643;43.158;25.302;2022-11-12T21:12:36;50.38;;;27.48;;
29732;SDS011;16643;43.158;25.302;2022-11-12T21:15:02;53.33;;;27.65;;
29732;SDS011;16643;43.158;25.302;2022-11-12T21:17:29;76.55;;;42.30;;
29732;SDS011;16643;43.158;25.302;2022-11-12T21:19:54;70.28;;;39.25;;
29732;SDS011;16643;43.158;25.302;2022-11-12T21:22:21;56.35;;;35.00;;
29732;SDS011;16643;43.158;25.302;2022-11-12T21:24:47;54.33;;;34.58;;
29732;SDS011;16643;43.158;25.302;2022-11-12T21:27:12;66.88;;;37.75;;
29732;SDS011;16643;43.158;25.302;2022-11-12T21:29:38;66.43;;;38.15;;
29732;SDS011;16643;43.158;25.302;2022-11-12T21:32:04;63.97;;;36.20;;
29732;SDS011;16643;43.158;25.302;2022-11-12T21:34:30;63.25;;;36.28;;
29732;SDS011;16643;43.158;25.302;2022-11-12T21:36:55;62.22;;;34.90;;
29732;SDS011;16643;43.158;25.302;2022-11-12T21:39:21;57.97;;;33.42;;
29732;SDS011;16643;43.158;25.302;2022-11-12T21:41:47;78.43;;;38.22;;
29732;SDS011;16643;43.158;25.302;2022-11-12T21:44:12;76.10;;;37.22;;
29732;SDS011;16643;43.158;25.302;2022-11-12T21:46:38;69.70;;;35.13;;
29732;SDS011;16643;43.158;25.302;2022-11-12T21:49:04;74.25;;;34.00;;
29732;SDS011;16643;43.158;25.302;2022-11-12T21:51:31;73.00;;;34.00;;
29732;SDS011;16643;43.158;25.302;2022-11-12T21:53:59;85.38;;;35.15;;
29732;SDS011;16643;43.158;25.302;2022-11-12T21:56:26;63.10;;;32.63;;
29732;SDS011;16643;43.158;25.302;2022-11-12T21:58:53;79.05;;;37.30;;
29732;SDS011;16643;43.158;25.302;2022-11-12T22:01:24;83.50;;;38.33;;
29732;SDS011;16643;43.158;25.302;2022-11-12T22:03:52;72.28;;;34.97;;
29732;SDS011;16643;43.158;25.302;2022-11-12T22:06:19;71.70;;;34.13;;
29732;SDS011;16643;43.158;25.302;2022-11-12T22:08:49;76.28;;;31.23;;
29732;SDS011;16643;43.158;25.302;2022-11-12T22:11:16;74.85;;;31.92;;
29732;SDS011;16643;43.158;25.302;2022-11-12T22:13:42;84.80;;;33.63;;
29732;SDS011;16643;43.158;25.302;2022-11-12T22:16:11;84.55;;;32.42;;
29732;SDS011;16643;43.158;25.302;2022-11-12T22:18:40;79.80;;;34.05;;
29732;SDS011;16643;43.158;25.302;2022-11-12T22:21:06;82.97;;;32.22;;
29732;SDS011;16643;43.158;25.302;2022-11-12T22:23:36;78.70;;;29.52;;
29732;SDS011;16643;43.158;25.302;2022-11-12T22:26:03;75.57;;;29.83;;
29732;SDS011;16643;43.158;25.302;2022-11-12T22:28:31;83.35;;;33.78;;
29732;SDS011;16643;43.158;25.302;2022-11-12T22:33:30;74.18;;;29.30;;
29732;SDS011;16643;43.158;25.302;2022-11-12T22:35:59;77.97;;;29.52;;
29732;SDS011;16643;43.158;25.302;2022-11-12T22:38:33;91.00;;;33.75;;
29732;SDS011;16643;43.158;25.302;2022-11-12T22:41:00;75.43;;;30.67;;
29732;SDS011;16643;43.158;25.302;2022-11-12T22:43:27;77.32;;;30.13;;
29732;SDS011;16643;43.158;25.302;2022-11-12T22:45:53;72.30;;;30.02;;
29732;SDS011;16643;43.158;25.302;2022-11-12T22:48:18;70.53;;;30.85;;
29732;SDS011;16643;43.158;25.302;2022-11-12T22:50:44;65.43;;;28.75;;
29732;SDS011;16643;43.158;25.302;2022-11-12T22:53:10;66.90;;;30.83;;
29732;SDS011;16643;43.158;25.302;2022-11-12T22:55:35;67.00;;;33.42;;
29732;SDS011;16643;43.158;25.302;2022-11-12T22:58:01;64.50;;;29.73;;
29732;SDS011;16643;43.158;25.302;2022-11-12T23:00:28;63.92;;;31.17;;
29732;SDS011;16643;43.158;25.302;2022-11-12T23:02:55;70.40;;;32.42;;
29732;SDS011;16643;43.158;25.302;2022-11-12T23:05:20;70.68;;;33.40;;
29732;SDS011;16643;43.158;25.302;2022-11-12T23:07:46;59.20;;;30.83;;
29732;SDS011;16643;43.158;25.302;2022-11-12T23:10:11;73.30;;;33.78;;
29732;SDS011;16643;43.158;25.302;2022-11-12T23:12:37;66.82;;;31.67;;
29732;SDS011;16643;43.158;25.302;2022-11-12T23:15:03;73.28;;;33.53;;
29732;SDS011;16643;43.158;25.302;2022-11-12T23:17:29;70.85;;;33.42;;
29732;SDS011;16643;43.158;25.302;2022-11-12T23:19:55;64.60;;;32.75;;
29732;SDS011;16643;43.158;25.302;2022-11-12T23:22:21;69.60;;;32.45;;
29732;SDS011;16643;43.158;25.302;2022-11-12T23:24:47;70.72;;;34.15;;
29732;SDS011;16643;43.158;25.302;2022-11-12T23:27:13;63.55;;;29.33;;
29732;SDS011;16643;43.158;25.302;2022-11-12T23:29:38;63.40;;;31.58;;
29732;SDS011;16643;43.158;25.302;2022-11-12T23:32:04;74.28;;;31.80;;
29732;SDS011;16643;43.158;25.302;2022-11-12T23:34:30;73.15;;;35.85;;
29732;SDS011;16643;43.158;25.302;2022-11-12T23:36:55;66.63;;;30.60;;
29732;SDS011;16643;43.158;25.302;2022-11-12T23:39:21;62.78;;;29.80;;
29732;SDS011;16643;43.158;25.302;2022-11-12T23:41:46;70.10;;;31.05;;
29732;SDS011;16643;43.158;25.302;2022-11-12T23:44:12;75.57;;;34.33;;
29732;SDS011;16643;43.158;25.302;2022-11-12T23:46:37;78.22;;;34.42;;
29732;SDS011;16643;43.158;25.302;2022-11-12T23:49:03;157.60;;;35.67;;
29732;SDS011;16643;43.158;25.302;2022-11-12T23:51:29;168.43;;;31.25;;
29732;SDS011;16643;43.158;25.302;2022-11-12T23:53:54;63.50;;;27.90;;
29732;SDS011;16643;43.158;25.302;2022-11-12T23:56:20;65.35;;;27.95;;
29732;SDS011;16643;43.158;25.302;2022-11-12T23:58:46;60.83;;;27.83;;
